createdAt,value
2023-05-24T00:00:44.969Z,16.52
2023-05-24T00:03:15.446Z,16.44
2023-05-24T00:05:46.814Z,16.44
2023-05-24T00:08:15.995Z,16.47
2023-05-24T00:10:44.172Z,16.42
2023-05-24T00:13:12.067Z,16.46
2023-05-24T00:15:39.703Z,16.30
2023-05-24T00:18:07.482Z,16.24
2023-05-24T00:20:35.241Z,16.22
2023-05-24T00:23:04.446Z,16.17
2023-05-24T00:25:32.150Z,16.32
2023-05-24T00:27:59.808Z,16.35
2023-05-24T00:30:27.420Z,16.30
2023-05-24T00:32:55.295Z,16.23
2023-05-24T00:35:23.300Z,16.10
2023-05-24T00:37:50.950Z,16.11
2023-05-24T00:40:20.043Z,16.08
2023-05-24T00:42:47.670Z,15.95
2023-05-24T00:45:15.424Z,16.00
2023-05-24T00:47:43.577Z,16.03
2023-05-24T00:50:13.166Z,16.18
2023-05-24T00:52:42.870Z,16.03
2023-05-24T00:55:11.805Z,15.95
2023-05-24T00:57:41.071Z,15.85
2023-05-24T01:00:11.230Z,15.93
2023-05-24T01:02:39.022Z,15.93
2023-05-24T01:05:07.991Z,15.81
2023-05-24T01:07:47.082Z,15.72
2023-05-24T01:10:22.480Z,15.77
2023-05-24T01:13:00.851Z,15.70
2023-05-24T01:15:39.090Z,15.61
2023-05-24T01:18:12.567Z,15.55
2023-05-24T01:20:42.085Z,15.43
2023-05-24T01:23:31.073Z,15.47
2023-05-24T01:26:17.606Z,15.56
2023-05-24T01:28:49.322Z,15.52
2023-05-24T01:31:19.034Z,15.43
2023-05-24T01:33:46.703Z,15.51
2023-05-24T01:36:14.365Z,15.48
2023-05-24T01:38:42.689Z,15.49
2023-05-24T01:41:22.081Z,15.47
2023-05-24T01:43:57.540Z,15.47
2023-05-24T01:46:36.186Z,15.35
2023-05-24T01:49:13.407Z,15.38
2023-05-24T01:51:47.034Z,15.36
2023-05-24T01:54:15.476Z,15.38
2023-05-24T01:56:45.591Z,15.34
2023-05-24T01:59:16.013Z,15.44
2023-05-24T02:01:44.004Z,15.34
2023-05-24T02:04:11.946Z,15.29
2023-05-24T02:06:39.618Z,15.22
2023-05-24T02:09:07.305Z,15.36
2023-05-24T02:11:34.975Z,15.28
2023-05-24T02:14:02.698Z,15.29
2023-05-24T02:16:31.726Z,15.29
2023-05-24T02:18:59.409Z,15.54
2023-05-24T02:21:28.875Z,15.28
2023-05-24T02:23:57.013Z,15.33
2023-05-24T02:26:24.661Z,15.33
2023-05-24T02:28:52.458Z,15.23
2023-05-24T02:31:21.685Z,15.40
2023-05-24T02:33:51.089Z,15.61
2023-05-24T02:36:18.750Z,15.38
2023-05-24T02:38:46.681Z,15.17
2023-05-24T02:41:17.898Z,15.17
2023-05-24T02:43:46.102Z,15.40
2023-05-24T02:46:14.198Z,15.43
2023-05-24T02:48:42.096Z,15.20
2023-05-24T02:51:11.157Z,15.25
2023-05-24T02:53:38.871Z,15.31
2023-05-24T02:56:07.436Z,15.22
2023-05-24T02:58:40.436Z,15.27
2023-05-24T03:01:08.574Z,15.33
2023-05-24T03:03:36.412Z,15.03
2023-05-24T03:06:04.420Z,15.23
2023-05-24T03:08:33.416Z,15.30
2023-05-24T03:11:01.091Z,15.14
2023-05-24T03:13:28.806Z,15.10
2023-05-24T03:15:56.574Z,15.02
2023-05-24T03:18:24.656Z,15.42
2023-05-24T03:20:52.512Z,15.56
2023-05-24T03:23:20.366Z,15.31
2023-05-24T03:25:49.569Z,15.15
2023-05-24T03:28:17.244Z,15.15
2023-05-24T03:30:45.086Z,15.31
2023-05-24T03:33:12.798Z,15.36
2023-05-24T03:35:41.007Z,15.39
2023-05-24T03:38:08.775Z,15.38
2023-05-24T03:40:36.921Z,15.41
2023-05-24T03:43:06.046Z,15.38
2023-05-24T03:45:39.087Z,15.30
2023-05-24T03:48:08.373Z,15.37
2023-05-24T03:50:36.406Z,15.41
2023-05-24T03:53:04.110Z,15.31
2023-05-24T03:55:32.125Z,15.30
2023-05-24T03:57:59.818Z,15.26
2023-05-24T04:00:30.171Z,15.17
2023-05-24T04:02:57.945Z,15.21
2023-05-24T04:05:27.189Z,15.09
2023-05-24T04:07:54.953Z,15.11
2023-05-24T04:10:22.795Z,15.17
2023-05-24T04:12:50.614Z,15.14
2023-05-24T04:15:18.466Z,15.11
2023-05-24T04:17:47.791Z,15.09
2023-05-24T04:20:15.556Z,15.07
2023-05-24T04:22:43.362Z,15.02
2023-05-24T04:25:11.307Z,14.99
2023-05-24T04:27:38.917Z,14.97
2023-05-24T04:30:09.207Z,14.99
2023-05-24T04:32:36.975Z,14.94
2023-05-24T04:35:07.192Z,14.84
2023-05-24T04:37:34.898Z,14.89
2023-05-24T04:40:04.195Z,14.90
2023-05-24T04:42:32.481Z,14.84
2023-05-24T04:45:00.293Z,14.93
2023-05-24T04:47:28.180Z,14.86
2023-05-24T04:49:55.830Z,14.84
2023-05-24T04:52:25.130Z,14.85
2023-05-24T04:54:53.078Z,14.93
2023-05-24T04:57:20.722Z,14.84
2023-05-24T04:59:48.532Z,14.88
2023-05-24T05:02:16.218Z,14.89
2023-05-24T05:04:43.856Z,14.64
2023-05-24T05:07:11.504Z,14.57
2023-05-24T05:09:40.513Z,14.76
2023-05-24T05:12:08.561Z,14.74
2023-05-24T05:14:36.430Z,14.80
2023-05-24T05:17:04.100Z,14.81
2023-05-24T05:19:31.976Z,14.75
2023-05-24T05:21:59.725Z,14.81
2023-05-24T05:24:27.419Z,14.59
2023-05-24T05:26:56.440Z,14.89
2023-05-24T05:29:24.643Z,15.03
2023-05-24T05:31:52.660Z,14.91
2023-05-24T05:34:21.203Z,14.94
2023-05-24T05:36:48.837Z,15.13
2023-05-24T05:39:16.480Z,15.13
2023-05-24T05:41:46.048Z,15.21
2023-05-24T05:44:15.717Z,15.04
2023-05-24T05:46:46.038Z,15.17
2023-05-24T05:49:13.817Z,15.22
2023-05-24T05:51:41.572Z,15.25
2023-05-24T05:54:14.344Z,15.35
2023-05-24T05:56:45.560Z,15.40
2023-05-24T05:59:13.289Z,15.46
2023-05-24T06:01:42.760Z,15.53
2023-05-24T06:04:11.305Z,15.37
2023-05-24T06:06:38.939Z,15.46
2023-05-24T06:09:06.708Z,15.51
2023-05-24T06:11:34.399Z,15.51
2023-05-24T06:14:02.607Z,15.62
2023-05-24T06:16:30.293Z,15.61
2023-05-24T06:19:06.041Z,15.67
2023-05-24T06:21:36.646Z,15.64
2023-05-24T06:24:04.760Z,15.68
2023-05-24T06:26:32.418Z,15.65
2023-05-24T06:29:00.650Z,15.70
2023-05-24T06:31:28.334Z,15.74
2023-05-24T06:34:03.955Z,15.78
2023-05-24T06:36:36.104Z,15.82
2023-05-24T06:39:04.890Z,15.88
2023-05-24T06:41:32.564Z,15.79
2023-05-24T06:44:00.240Z,15.93
2023-05-24T06:46:28.016Z,16.01
2023-05-24T06:48:55.822Z,16.03
2023-05-24T06:51:23.560Z,16.00
2023-05-24T06:53:52.925Z,15.93
2023-05-24T06:56:20.635Z,16.05
2023-05-24T06:58:48.606Z,16.07
2023-05-24T07:01:16.923Z,16.13
2023-05-24T07:03:44.672Z,16.02
2023-05-24T07:06:14.158Z,16.13
2023-05-24T07:08:42.296Z,16.11
2023-05-24T07:11:11.530Z,16.29
2023-05-24T07:13:39.204Z,16.35
2023-05-24T07:16:07.744Z,16.33
2023-05-24T07:18:35.746Z,16.30
2023-05-24T07:21:03.483Z,16.42
2023-05-24T07:23:31.272Z,16.45
2023-05-24T07:25:58.986Z,16.56
2023-05-24T07:28:28.009Z,16.56
2023-05-24T07:30:55.676Z,16.70
2023-05-24T07:33:23.750Z,16.79
2023-05-24T07:35:52.449Z,16.79
2023-05-24T07:38:20.382Z,16.89
2023-05-24T07:40:48.230Z,16.94
2023-05-24T07:43:16.253Z,16.91
2023-05-24T07:45:45.373Z,16.92
2023-05-24T07:48:13.105Z,16.99
2023-05-24T07:50:40.859Z,17.02
2023-05-24T07:53:08.691Z,17.01
2023-05-24T07:55:36.518Z,17.12
2023-05-24T07:58:04.170Z,17.13
2023-05-24T08:00:33.153Z,17.22
2023-05-24T08:03:03.430Z,17.29
2023-05-24T08:05:31.189Z,17.33
2023-05-24T08:07:59.092Z,17.38
2023-05-24T08:10:27.530Z,17.50
2023-05-24T08:12:56.171Z,17.59
2023-05-24T08:15:24.210Z,17.64
2023-05-24T08:17:51.910Z,17.77
2023-05-24T08:20:21.299Z,17.82
2023-05-24T08:22:49.381Z,17.82
2023-05-24T08:25:17.097Z,17.95
2023-05-24T08:27:44.819Z,18.01
2023-05-24T08:30:14.179Z,18.15
2023-05-24T08:32:41.993Z,18.20
2023-05-24T08:35:19.460Z,18.26
2023-05-24T08:37:49.915Z,18.34
2023-05-24T08:40:18.043Z,18.39
2023-05-24T08:42:46.319Z,18.46
2023-05-24T08:45:15.284Z,18.60
2023-05-24T08:47:43.519Z,18.66
2023-05-24T08:50:11.971Z,18.79
2023-05-24T08:52:40.727Z,18.90
2023-05-24T08:55:12.417Z,18.93
2023-05-24T08:57:41.457Z,18.99
2023-05-24T09:00:11.780Z,19.03
2023-05-24T09:02:40.720Z,19.10
2023-05-24T09:05:11.500Z,19.21
2023-05-24T09:07:39.893Z,19.23
2023-05-24T09:10:10.615Z,19.24
2023-05-24T09:12:39.913Z,19.34
2023-05-24T09:15:09.556Z,19.39
2023-05-24T09:17:38.612Z,19.21
2023-05-24T09:20:08.999Z,19.07
2023-05-24T09:22:40.993Z,18.85
2023-05-24T09:25:13.784Z,18.77
2023-05-24T09:27:41.687Z,18.91
2023-05-24T09:30:11.027Z,19.20
2023-05-24T09:32:39.132Z,19.41
2023-05-24T09:35:10.729Z,19.53
2023-05-24T09:37:40.354Z,19.37
2023-05-24T09:40:18.456Z,19.26
2023-05-24T09:42:46.443Z,19.07
2023-05-24T09:45:14.435Z,18.88
2023-05-24T09:47:43.217Z,18.76
2023-05-24T09:50:14.955Z,18.91
2023-05-24T09:52:43.126Z,19.17
2023-05-24T09:55:16.005Z,19.40
2023-05-24T09:57:44.708Z,19.49
2023-05-24T10:00:17.538Z,19.63
2023-05-24T10:02:53.556Z,19.76
2023-05-24T10:05:22.282Z,19.85
2023-05-24T10:07:50.106Z,19.97
2023-05-24T10:10:19.481Z,20.06
2023-05-24T10:12:47.892Z,20.18
2023-05-24T10:15:16.400Z,20.25
2023-05-24T10:17:44.339Z,20.33
2023-05-24T10:20:13.350Z,20.44
2023-05-24T10:22:44.551Z,20.55
2023-05-24T10:25:17.055Z,20.63
2023-05-24T10:27:46.821Z,20.65
2023-05-24T10:30:22.208Z,20.75
2023-05-24T10:32:51.416Z,20.82
2023-05-24T10:35:20.322Z,20.72
2023-05-24T10:37:48.348Z,20.78
2023-05-24T10:40:20.969Z,20.88
2023-05-24T10:42:50.363Z,20.97
2023-05-24T10:45:33.463Z,21.02
2023-05-24T10:48:03.492Z,21.04
2023-05-24T10:50:31.196Z,21.19
2023-05-24T10:53:12.704Z,21.32
2023-05-24T10:55:54.687Z,21.45
2023-05-24T10:58:30.736Z,21.46
2023-05-24T11:00:58.379Z,21.49
2023-05-24T11:03:26.461Z,21.57
2023-05-24T11:05:55.543Z,21.67
2023-05-24T11:08:27.507Z,21.72
2023-05-24T11:11:31.167Z,21.62
2023-05-24T11:14:01.910Z,21.67
2023-05-24T11:16:39.232Z,21.66
2023-05-24T11:19:15.756Z,21.73
2023-05-24T11:21:45.561Z,21.76
2023-05-24T11:24:13.512Z,21.84
2023-05-24T11:26:41.348Z,21.81
2023-05-24T11:29:10.587Z,21.88
2023-05-24T11:31:43.126Z,21.83
2023-05-24T11:34:11.833Z,21.85
2023-05-24T11:36:39.763Z,21.95
2023-05-24T11:39:09.556Z,21.64
2023-05-24T11:41:39.147Z,21.87
2023-05-24T11:44:08.952Z,21.97
2023-05-24T11:46:39.542Z,21.93
2023-05-24T11:49:07.750Z,21.83
2023-05-24T11:51:37.500Z,21.73
2023-05-24T11:54:05.428Z,21.69
2023-05-24T11:56:34.033Z,21.72
2023-05-24T11:59:10.894Z,21.75
2023-05-24T12:01:40.785Z,21.70
2023-05-24T12:04:09.755Z,21.62
2023-05-24T12:06:40.622Z,21.37
2023-05-24T12:09:10.401Z,21.25
2023-05-24T12:11:42.915Z,21.12
2023-05-24T12:14:14.241Z,21.00
2023-05-24T12:16:45.457Z,20.89
2023-05-24T12:19:32.290Z,20.79
2023-05-24T12:22:02.304Z,20.60
2023-05-24T12:24:32.364Z,20.42
2023-05-24T12:27:02.858Z,20.35
2023-05-24T12:29:34.170Z,20.32
2023-05-24T12:32:03.738Z,20.35
2023-05-24T12:34:31.596Z,20.35
2023-05-24T12:37:00.770Z,20.32
2023-05-24T12:39:31.631Z,20.29
2023-05-24T12:42:04.011Z,20.31
2023-05-24T12:44:33.548Z,20.34
2023-05-24T12:47:06.069Z,20.37
2023-05-24T12:49:37.036Z,20.35
2023-05-24T12:52:05.074Z,20.26
2023-05-24T12:54:33.043Z,20.31
2023-05-24T12:57:02.617Z,20.45
2023-05-24T12:59:30.448Z,20.49
2023-05-24T13:01:58.298Z,20.51
2023-05-24T13:04:28.134Z,20.54
2023-05-24T13:06:56.125Z,20.48
2023-05-24T13:09:25.553Z,20.50
2023-05-24T13:11:54.170Z,20.51
2023-05-24T13:14:22.070Z,20.45
2023-05-24T13:16:49.998Z,20.32
2023-05-24T13:19:17.830Z,20.23
2023-05-24T13:21:47.030Z,20.17
2023-05-24T13:24:16.020Z,20.16
2023-05-24T13:26:43.948Z,20.15
2023-05-24T13:31:42.544Z,20.36
2023-05-24T13:34:11.366Z,20.48
2023-05-24T13:36:39.434Z,20.69
2023-05-24T13:41:41.294Z,20.79
2023-05-24T13:44:09.855Z,20.67
2023-05-24T13:46:37.892Z,20.62
2023-05-24T13:49:06.146Z,20.59
2023-05-24T13:51:34.256Z,20.68
2023-05-24T13:54:02.294Z,20.69
2023-05-24T13:56:33.271Z,20.75
2023-05-24T13:59:02.646Z,20.73
2023-05-24T14:01:30.643Z,20.64
2023-05-24T14:03:58.509Z,20.55
2023-05-24T14:06:26.335Z,20.42
2023-05-24T14:08:54.113Z,20.35
2023-05-24T14:11:22.517Z,20.24
2023-05-24T14:16:22.637Z,20.16
2023-05-24T14:18:51.842Z,20.14
2023-05-24T14:21:21.630Z,20.15
2023-05-24T14:23:49.516Z,20.15
2023-05-24T14:26:17.807Z,20.10
2023-05-24T14:28:45.626Z,20.01
2023-05-24T14:31:14.811Z,19.95
2023-05-24T14:33:42.536Z,19.82
2023-05-24T14:36:10.269Z,19.78
2023-05-24T14:38:38.034Z,19.78
2023-05-24T14:41:06.386Z,19.72
2023-05-24T14:43:34.074Z,19.70
2023-05-24T14:46:01.756Z,19.65
2023-05-24T14:48:31.048Z,19.59
2023-05-24T14:50:58.942Z,19.63
2023-05-24T14:53:26.655Z,19.58
2023-05-24T14:55:54.628Z,19.58
2023-05-24T14:58:22.242Z,19.63
2023-05-24T15:00:50.045Z,19.70
2023-05-24T15:03:18.593Z,19.74
2023-05-24T15:05:47.669Z,19.77
2023-05-24T15:08:15.561Z,19.82
2023-05-24T15:10:45.087Z,19.79
2023-05-24T15:13:13.239Z,19.74
2023-05-24T15:15:42.010Z,19.72
2023-05-24T15:18:09.874Z,19.64
2023-05-24T15:20:37.686Z,19.58
2023-05-24T15:23:10.432Z,19.50
2023-05-24T15:25:38.345Z,19.49
2023-05-24T15:28:06.135Z,19.51
2023-05-24T15:30:33.898Z,19.50
2023-05-24T15:33:01.514Z,19.46
2023-05-24T15:35:29.138Z,19.36
2023-05-24T15:37:56.791Z,19.29
2023-05-24T15:40:25.905Z,19.37
2023-05-24T15:42:53.793Z,19.36
2023-05-24T15:45:21.805Z,19.37
2023-05-24T15:47:49.641Z,19.36
2023-05-24T15:50:20.239Z,19.33
2023-05-24T15:52:51.513Z,19.37
2023-05-24T15:55:19.225Z,19.32
2023-05-24T15:57:48.401Z,19.30
2023-05-24T16:00:16.923Z,19.28
2023-05-24T16:02:44.824Z,19.16
2023-05-24T16:05:12.638Z,19.16
2023-05-24T16:07:40.305Z,19.14
2023-05-24T16:10:08.677Z,19.09
2023-05-24T16:12:36.362Z,19.03
2023-05-24T16:15:06.203Z,19.06
2023-05-24T16:17:33.862Z,19.08
2023-05-24T16:20:01.530Z,19.15
2023-05-24T16:22:29.522Z,19.17
2023-05-24T16:24:57.312Z,19.19
2023-05-24T16:27:25.001Z,19.26
2023-05-24T16:29:52.729Z,19.31
2023-05-24T16:32:21.882Z,19.30
2023-05-24T16:34:56.562Z,19.22
2023-05-24T16:37:24.630Z,19.16
2023-05-24T16:39:52.302Z,19.21
2023-05-24T16:42:20.005Z,19.24
2023-05-24T16:44:47.775Z,19.22
2023-05-24T16:47:15.530Z,19.20
2023-05-24T16:49:44.532Z,19.23
2023-05-24T16:52:12.160Z,19.23
2023-05-24T16:54:39.826Z,19.17
2023-05-24T16:57:08.046Z,19.21
2023-05-24T16:59:36.146Z,19.10
2023-05-24T17:02:03.972Z,19.09
2023-05-24T17:04:31.852Z,19.04
2023-05-24T17:07:00.884Z,19.05
2023-05-24T17:09:29.033Z,19.00
2023-05-24T17:11:56.650Z,18.95
2023-05-24T17:14:24.326Z,18.87
2023-05-24T17:16:51.930Z,18.86
2023-05-24T17:19:20.932Z,18.74
2023-05-24T17:21:48.768Z,18.83
2023-05-24T17:24:17.894Z,18.69
2023-05-24T17:26:45.573Z,18.78
2023-05-24T17:29:13.313Z,18.76
2023-05-24T17:31:41.525Z,18.68
2023-05-24T17:34:09.226Z,18.72
2023-05-24T17:36:37.600Z,18.64
2023-05-24T17:39:06.634Z,18.68
2023-05-24T17:41:35.758Z,18.57
2023-05-24T17:44:04.752Z,18.49
2023-05-24T17:46:35.708Z,18.50
2023-05-24T17:49:04.749Z,18.61
2023-05-24T17:51:34.115Z,18.53
2023-05-24T17:54:01.881Z,18.50
2023-05-24T17:56:30.429Z,18.49
2023-05-24T17:58:59.893Z,18.47
2023-05-24T18:01:29.158Z,18.49
2023-05-24T18:03:56.870Z,18.48
2023-05-24T18:06:24.548Z,18.37
2023-05-24T18:08:52.219Z,18.40
2023-05-24T18:11:20.069Z,18.32
2023-05-24T18:13:47.738Z,18.31
2023-05-24T18:16:17.005Z,18.29
2023-05-24T18:18:44.668Z,18.22
2023-05-24T18:21:13.090Z,18.23
2023-05-24T18:23:40.866Z,18.18
2023-05-24T18:26:09.453Z,18.16
2023-05-24T18:28:38.456Z,18.21
2023-05-24T18:31:08.264Z,18.16
2023-05-24T18:33:37.772Z,18.20
2023-05-24T18:36:06.222Z,18.17
2023-05-24T18:38:34.848Z,18.12
2023-05-24T18:41:05.742Z,18.08
2023-05-24T18:43:34.134Z,18.06
2023-05-24T18:46:01.900Z,18.04
2023-05-24T18:48:29.729Z,18.05
2023-05-24T18:50:59.016Z,18.02
2023-05-24T18:53:26.740Z,18.00
2023-05-24T18:55:54.450Z,17.99
2023-05-24T18:58:22.107Z,17.95
2023-05-24T19:00:50.538Z,17.95
2023-05-24T19:03:18.259Z,17.91
2023-05-24T19:05:46.306Z,17.91
2023-05-24T19:08:15.517Z,17.94
2023-05-24T19:10:43.232Z,17.89
2023-05-24T19:13:10.881Z,17.88
2023-05-24T19:15:38.626Z,17.89
2023-05-24T19:18:07.165Z,17.90
2023-05-24T19:20:35.052Z,17.85
2023-05-24T19:23:02.882Z,17.87
2023-05-24T19:25:32.218Z,17.87
2023-05-24T19:28:00.935Z,17.85
2023-05-24T19:30:28.924Z,17.82
2023-05-24T19:32:56.674Z,17.81
2023-05-24T19:35:24.401Z,17.77
2023-05-24T19:37:52.498Z,17.79
2023-05-24T19:40:20.742Z,17.77
2023-05-24T19:42:49.803Z,17.77
2023-05-24T19:45:17.525Z,17.75
2023-05-24T19:47:46.412Z,17.76
2023-05-24T19:50:14.193Z,17.72
2023-05-24T19:52:41.815Z,17.72
2023-05-24T19:55:10.577Z,17.72
2023-05-24T19:57:38.259Z,17.64
2023-05-24T20:00:08.721Z,17.46
2023-05-24T20:02:36.818Z,17.46
2023-05-24T20:05:05.168Z,17.49
2023-05-24T20:07:32.853Z,17.45
2023-05-24T20:10:00.884Z,17.41
2023-05-24T20:12:30.701Z,17.41
2023-05-24T20:14:58.382Z,17.42
2023-05-24T20:17:27.528Z,17.44
2023-05-24T20:19:55.375Z,17.46
2023-05-24T20:22:24.756Z,17.44
2023-05-24T20:24:52.508Z,17.35
2023-05-24T20:27:20.260Z,17.32
2023-05-24T20:29:47.954Z,17.39
2023-05-24T20:32:16.328Z,17.33
2023-05-24T20:34:45.527Z,17.28
2023-05-24T20:37:27.276Z,17.17
2023-05-24T20:39:55.071Z,17.32
2023-05-24T20:42:22.737Z,17.30
2023-05-24T20:44:50.493Z,17.27
2023-05-24T20:47:19.138Z,17.28
2023-05-24T20:49:49.167Z,17.30
2023-05-24T20:52:16.946Z,17.25
2023-05-24T20:54:44.588Z,17.25
2023-05-24T20:57:12.213Z,17.26
2023-05-24T20:59:39.940Z,17.18
2023-05-24T21:02:08.106Z,17.15
2023-05-24T21:04:35.792Z,17.12
2023-05-24T21:07:05.137Z,17.14
2023-05-24T21:09:32.749Z,17.17
2023-05-24T21:12:01.539Z,17.13
2023-05-24T21:14:29.231Z,17.15
2023-05-24T21:16:56.940Z,17.16
2023-05-24T21:19:24.623Z,17.09
2023-05-24T21:21:52.375Z,17.01
2023-05-24T21:24:21.489Z,17.00
2023-05-24T21:26:49.309Z,16.96
2023-05-24T21:29:17.088Z,16.95
2023-05-24T21:31:44.778Z,16.91
2023-05-24T21:34:12.463Z,16.92
2023-05-24T21:36:40.210Z,16.87
2023-05-24T21:39:08.451Z,16.85
2023-05-24T21:41:38.858Z,16.74
2023-05-24T21:44:08.039Z,16.77
2023-05-24T21:46:38.565Z,16.67
2023-05-24T21:49:06.281Z,16.73
2023-05-24T21:51:34.140Z,16.72
2023-05-24T21:54:01.809Z,16.75
2023-05-24T21:56:29.560Z,16.75
2023-05-24T21:58:58.616Z,16.63
2023-05-24T22:01:28.229Z,16.61
2023-05-24T22:03:56.413Z,16.62
2023-05-24T22:06:24.346Z,16.59
2023-05-24T22:08:51.964Z,16.62
2023-05-24T22:11:19.610Z,16.56
2023-05-24T22:13:47.353Z,16.49
2023-05-24T22:16:16.507Z,16.47
2023-05-24T22:18:44.211Z,16.42
2023-05-24T22:21:14.354Z,16.45
2023-05-24T22:23:43.957Z,16.43
2023-05-24T22:26:11.672Z,16.39
2023-05-24T22:28:52.378Z,16.16
2023-05-24T22:31:21.840Z,16.27
2023-05-24T22:33:50.350Z,16.22
2023-05-24T22:36:18.774Z,16.19
2023-05-24T22:38:46.516Z,16.15
2023-05-24T22:41:14.180Z,16.25
2023-05-24T22:43:41.865Z,16.15
2023-05-24T22:46:11.934Z,16.14
2023-05-24T22:48:41.062Z,16.15
2023-05-24T22:51:09.171Z,16.19
2023-05-24T22:53:39.101Z,16.16
2023-05-24T22:56:10.404Z,16.21
2023-05-24T22:58:38.587Z,16.19
2023-05-24T23:01:06.720Z,16.10
2023-05-24T23:03:34.510Z,16.08
2023-05-24T23:06:05.498Z,15.97
2023-05-24T23:08:33.726Z,16.05
2023-05-24T23:11:01.535Z,15.94
2023-05-24T23:13:33.675Z,15.83
2023-05-24T23:16:01.396Z,15.97
2023-05-24T23:18:29.217Z,15.98
2023-05-24T23:20:56.953Z,15.89
2023-05-24T23:23:25.990Z,15.76
2023-05-24T23:25:53.897Z,15.65
2023-05-24T23:28:21.566Z,15.68
2023-05-24T23:30:49.343Z,15.73
2023-05-24T23:33:17.077Z,15.76
2023-05-24T23:35:45.022Z,15.77
2023-05-24T23:38:14.951Z,15.77
2023-05-24T23:40:44.167Z,15.71
2023-05-24T23:43:11.841Z,15.59
2023-05-24T23:45:39.487Z,15.60
2023-05-24T23:48:07.484Z,15.62
2023-05-24T23:50:40.117Z,15.55
2023-05-24T23:53:18.074Z,15.53
2023-05-24T23:55:47.061Z,15.64
2023-05-24T23:58:14.745Z,15.61
